(541)-479-2230 [email protected]

City of Grants Pass

Grants Pass AirportĀ 

Current Weather Conditions Medford Airport:
MEDFORD, OR
Metar
KMFR 150153Z 18004KT 10SM SCT050 BKN060 06/03 A3001 RMK AO2 RAE15 SLP171 P0003 T00560028

01:53 UTC

Wind: 180° 4kt

Visibility: 10 SM

Sky: SCT 5000 ft

Temp: 6 deg C / 42.8 deg F

Dewpoint: 3 deg C / 37.4 deg F

Pressure: 30.01 inHg

TAF
KMFR 142339Z 1500/1524 29010KT P6SM -SHRA SCT015 BKN035 FM150300 VRB02KT P6SM SCT035 FM150800 13004KT 3SM BR OVC100 FM152000 14008KT P6SM OVC250